Lynnville, Iowa
Current Conditions -  °F | °C
As of 1:55 PM on Friday 24 Oct 2014 (Local Time) from KGGI Reporting Station
Haze Haze  
Wind Chill: 60°   Ceiling: 500
Heat Index: 60°   Visibility: 4mi
Dew Point: 59°   Wind: 12mph
Humidity: 97%   Direction: 190°S
Pressure: 29.92"   Gusts: NA
Location:  41.58°N, 92.78°W
Report Text: KGGI 241855Z AUTO 19010KT 4SM BR OVC005 16/15 A2992 RMK AO2 T01550150
Loading
Personal Weather Stations






























Interactive Weather Map
Tropical Storm Tracking
New forecast layout! Learn more

10-Day Weather Forecast

Advertisements
Track Severe Weather on mobile